Time;durP1;ratioP1;P1;durP2;ratioP2;P2;SDS_P1;SDS_P2;PMS_P1;PMS_P2;Temp;Humidity;BMP_temperature;BMP_pressure;BME280_temperature;BME280_humidity;BME280_pressure;Samples;Min_cycle;Max_cycle;Signal;HPM_P1;HPM_P2
2022/07/23 00:00:55;;;;;;;9.75;5.95;;;;;;;;;;5027983;28;20445;-53
2022/07/23 00:03:21;;;;;;;9.25;4.75;;;;;;;;;;5020465;28;20507;-54
2022/07/23 00:05:47;;;;;;;8.30;5.28;;;;;;;;;;5031998;28;20029;-55
2022/07/23 00:08:13;;;;;;;8.40;4.93;;;;;;;;;;5021313;28;20037;-55
2022/07/23 00:10:39;;;;;;;7.20;4.75;;;;;;;;;;5030722;28;20109;-55
2022/07/23 00:13:05;;;;;;;8.93;5.30;;;;;;;;;;5031766;28;20033;-54
2022/07/23 00:15:31;;;;;;;7.80;4.70;;;;;;;;;;5031952;28;20029;-54
2022/07/23 00:17:57;;;;;;;6.90;5.53;;;;;;;;;;5027654;28;20521;-55
2022/07/23 00:20:23;;;;;;;7.15;4.93;;;;;;;;;;5029965;28;20033;-54
2022/07/23 00:22:50;;;;;;;8.65;5.22;;;;;;;;;;5030124;28;20036;-55
2022/07/23 00:25:16;;;;;;;8.00;5.00;;;;;;;;;;5031756;28;20029;-52
2022/07/23 00:27:42;;;;;;;7.97;5.00;;;;;;;;;;5031440;28;20101;-55
2022/07/23 00:30:08;;;;;;;8.23;5.43;;;;;;;;;;5031261;28;20018;-54
2022/07/23 00:32:45;;;;;;;8.80;4.60;;;;;;;;;;5030606;28;20037;-55
2022/07/23 00:35:11;;;;;;;5.88;4.65;;;;;;;;;;5030049;28;20101;-53
2022/07/23 00:37:37;;;;;;;7.82;5.03;;;;;;;;;;5031131;28;20621;-55
2022/07/23 00:40:03;;;;;;;6.22;5.00;;;;;;;;;;5030971;28;20135;-54
2022/07/23 00:42:31;;;;;;;6.95;4.85;;;;;;;;;;5029613;28;20026;-55
2022/07/23 00:44:57;;;;;;;7.75;5.50;;;;;;;;;;5030042;28;20108;-54
2022/07/23 00:47:23;;;;;;;8.98;5.63;;;;;;;;;;5029929;28;20036;-55
2022/07/23 00:49:49;;;;;;;7.63;4.85;;;;;;;;;;5030502;28;20100;-55
2022/07/23 00:52:15;;;;;;;6.57;5.18;;;;;;;;;;5016690;28;20036;-54
2022/07/23 00:54:41;;;;;;;8.05;4.70;;;;;;;;;;5030396;28;20385;-54
2022/07/23 00:57:07;;;;;;;7.78;5.22;;;;;;;;;;5030854;28;20045;-55
2022/07/23 00:59:33;;;;;;;8.27;5.07;;;;;;;;;;5031139;28;20104;-54
2022/07/23 01:01:59;;;;;;;6.75;5.57;;;;;;;;;;5029962;28;20567;-55
2022/07/23 01:04:25;;;;;;;6.45;5.40;;;;;;;;;;5030721;28;20033;-55
2022/07/23 01:06:51;;;;;;;8.70;5.43;;;;;;;;;;5032911;28;20036;-54
2022/07/23 01:09:18;;;;;;;5.47;4.78;;;;;;;;;;5037142;28;20035;-54
2022/07/23 01:11:43;;;;;;;7.85;5.50;;;;;;;;;;5029793;28;20026;-54
2022/07/23 01:14:10;;;;;;;7.93;5.28;;;;;;;;;;5030244;28;20037;-55
2022/07/23 01:16:36;;;;;;;6.32;4.63;;;;;;;;;;5031001;28;20029;-55
2022/07/23 01:19:06;;;;;;;8.20;5.60;;;;;;;;;;5023358;28;20457;-55
2022/07/23 01:21:32;;;;;;;8.23;5.45;;;;;;;;;;5024303;28;20064;-55
2022/07/23 01:23:58;;;;;;;6.57;5.07;;;;;;;;;;5030609;28;20024;-54
2022/07/23 01:26:24;;;;;;;11.02;5.78;;;;;;;;;;5025136;28;20382;-54
2022/07/23 01:28:50;;;;;;;8.68;5.45;;;;;;;;;;5030919;28;20401;-55
2022/07/23 01:31:17;;;;;;;7.15;5.03;;;;;;;;;;5029861;28;20022;-55
2022/07/23 01:33:43;;;;;;;11.48;5.63;;;;;;;;;;5030456;28;20041;-55
2022/07/23 01:36:09;;;;;;;8.25;5.30;;;;;;;;;;5030660;28;20072;-54
2022/07/23 01:38:35;;;;;;;9.90;5.25;;;;;;;;;;5030036;28;20036;-54
2022/07/23 01:41:01;;;;;;;7.40;5.35;;;;;;;;;;5030267;28;20025;-56
2022/07/23 01:43:27;;;;;;;6.90;5.20;;;;;;;;;;5028493;28;20029;-55
2022/07/23 01:45:53;;;;;;;9.82;5.53;;;;;;;;;;5030794;28;20033;-54
2022/07/23 01:48:19;;;;;;;8.90;6.05;;;;;;;;;;5028467;28;20032;-53
2022/07/23 01:50:46;;;;;;;7.35;5.15;;;;;;;;;;5030241;28;20079;-54
2022/07/23 01:53:12;;;;;;;8.00;6.32;;;;;;;;;;5030014;28;20038;-55
2022/07/23 01:55:38;;;;;;;9.02;5.53;;;;;;;;;;5034385;28;20034;-56
2022/07/23 01:58:05;;;;;;;7.43;5.47;;;;;;;;;;5032972;28;20077;-54
2022/07/23 02:00:31;;;;;;;9.57;5.05;;;;;;;;;;5033760;28;20465;-57
2022/07/23 02:02:58;;;;;;;7.68;5.85;;;;;;;;;;5033309;28;20038;-55
2022/07/23 02:05:24;;;;;;;9.10;5.75;;;;;;;;;;5034448;28;20025;-57
2022/07/23 02:07:50;;;;;;;6.95;5.43;;;;;;;;;;5035113;28;20470;-54
2022/07/23 02:10:16;;;;;;;9.52;5.80;;;;;;;;;;5025723;28;20037;-55
2022/07/23 02:12:42;;;;;;;7.95;4.72;;;;;;;;;;5034116;28;20029;-55
2022/07/23 02:15:08;;;;;;;9.68;5.43;;;;;;;;;;5032377;28;20025;-55
2022/07/23 02:17:34;;;;;;;6.75;4.85;;;;;;;;;;5034056;28;20116;-54
2022/07/23 02:20:00;;;;;;;8.15;5.10;;;;;;;;;;5032768;28;20033;-57
2022/07/23 02:22:26;;;;;;;9.38;5.60;;;;;;;;;;5033936;28;20028;-54
2022/07/23 02:24:52;;;;;;;8.23;5.28;;;;;;;;;;5033677;28;20513;-57
2022/07/23 02:27:18;;;;;;;9.50;5.75;;;;;;;;;;5033848;28;20025;-54
2022/07/23 02:29:44;;;;;;;9.93;5.78;;;;;;;;;;5031088;28;20037;-56
2022/07/23 02:32:10;;;;;;;8.00;5.30;;;;;;;;;;5033793;28;20131;-55
2022/07/23 02:34:36;;;;;;;7.30;5.00;;;;;;;;;;5033944;28;20025;-55
2022/07/23 02:37:02;;;;;;;9.13;5.55;;;;;;;;;;5033687;28;20072;-55
2022/07/23 02:39:28;;;;;;;10.48;5.90;;;;;;;;;;5032696;28;20389;-56
2022/07/23 02:41:54;;;;;;;9.23;5.30;;;;;;;;;;5033199;28;20034;-54
2022/07/23 02:44:20;;;;;;;7.82;4.97;;;;;;;;;;5033387;28;20465;-57
2022/07/23 02:46:46;;;;;;;8.80;4.93;;;;;;;;;;5025804;28;20656;-56
2022/07/23 02:49:12;;;;;;;8.48;5.10;;;;;;;;;;5025912;28;20388;-56
2022/07/23 02:51:38;;;;;;;8.65;4.40;;;;;;;;;;5033150;28;20033;-55
2022/07/23 02:54:04;;;;;;;9.23;4.95;;;;;;;;;;5033377;28;20056;-56
2022/07/23 02:56:30;;;;;;;6.22;4.53;;;;;;;;;;5033081;28;20113;-55
2022/07/23 02:58:56;;;;;;;9.30;5.25;;;;;;;;;;5033148;28;20036;-56
2022/07/23 03:01:22;;;;;;;7.25;4.45;;;;;;;;;;5031597;28;20422;-56
2022/07/23 03:03:48;;;;;;;9.13;4.88;;;;;;;;;;5032062;28;20756;-56
2022/07/23 03:06:14;;;;;;;8.48;4.60;;;;;;;;;;5032326;28;20032;-58
2022/07/23 03:08:40;;;;;;;7.40;4.30;;;;;;;;;;5043150;28;20036;-55
2022/07/23 03:11:10;;;;;;;8.48;4.32;;;;;;;;;;5031424;28;20033;-55
2022/07/23 03:13:37;;;;;;;6.68;4.45;;;;;;;;;;5032221;28;20052;-56
2022/07/23 03:16:03;;;;;;;7.82;4.28;;;;;;;;;;5033120;28;20037;-56
2022/07/23 03:18:29;;;;;;;9.75;4.70;;;;;;;;;;5033015;28;20497;-55
2022/07/23 03:20:55;;;;;;;8.82;4.47;;;;;;;;;;5031113;28;20065;-56
2022/07/23 03:23:21;;;;;;;7.95;4.60;;;;;;;;;;5025159;28;20404;-53
2022/07/23 03:25:48;;;;;;;8.27;5.72;;;;;;;;;;5032917;28;20105;-56
2022/07/23 03:28:15;;;;;;;6.68;4.68;;;;;;;;;;5032501;28;20449;-56
2022/07/23 03:30:41;;;;;;;8.18;3.88;;;;;;;;;;5032831;28;20036;-56
2022/07/23 03:33:07;;;;;;;6.35;3.60;;;;;;;;;;5032517;28;20032;-56
2022/07/23 03:35:33;;;;;;;8.70;3.50;;;;;;;;;;5032022;28;20233;-55
2022/07/23 03:37:59;;;;;;;8.38;3.83;;;;;;;;;;5031034;28;20033;-55
2022/07/23 03:40:25;;;;;;;7.78;4.10;;;;;;;;;;5032086;28;20580;-55
2022/07/23 03:42:51;;;;;;;9.30;4.30;;;;;;;;;;5032263;28;20022;-56
2022/07/23 03:45:17;;;;;;;5.18;3.60;;;;;;;;;;5032337;28;20021;-54
2022/07/23 03:47:44;;;;;;;8.00;3.53;;;;;;;;;;5030196;28;20112;-55
2022/07/23 03:50:10;;;;;;;6.40;3.05;;;;;;;;;;5030743;28;20041;-55
2022/07/23 03:52:36;;;;;;;6.88;3.20;;;;;;;;;;5032311;28;20038;-56
2022/07/23 03:55:03;;;;;;;7.30;3.72;;;;;;;;;;5030529;28;20037;-55
2022/07/23 03:57:29;;;;;;;4.93;3.30;;;;;;;;;;5031668;28;20084;-56
2022/07/23 03:59:55;;;;;;;8.90;3.42;;;;;;;;;;5030915;28;20033;-57
2022/07/23 04:02:21;;;;;;;7.60;3.35;;;;;;;;;;5031996;28;20079;-57
2022/07/23 04:04:47;;;;;;;6.75;2.80;;;;;;;;;;5032214;28;20057;-55
2022/07/23 04:07:13;;;;;;;7.80;3.35;;;;;;;;;;5036590;28;20021;-56
2022/07/23 04:09:42;;;;;;;6.57;3.40;;;;;;;;;;5025796;28;20033;-58
2022/07/23 04:12:08;;;;;;;7.60;3.85;;;;;;;;;;5030243;28;20033;-56
2022/07/23 04:14:34;;;;;;;7.93;3.03;;;;;;;;;;5031968;28;20030;-56
2022/07/23 04:17:00;;;;;;;6.32;3.40;;;;;;;;;;5030915;28;20033;-56
2022/07/23 04:19:26;;;;;;;4.82;3.17;;;;;;;;;;5031573;28;20528;-56
2022/07/23 04:21:52;;;;;;;5.55;3.42;;;;;;;;;;5030552;28;20029;-54
2022/07/23 04:24:18;;;;;;;11.30;4.00;;;;;;;;;;5030542;28;20034;-57
2022/07/23 04:26:44;;;;;;;11.18;3.78;;;;;;;;;;5031372;28;20056;-56
2022/07/23 04:29:11;;;;;;;11.70;4.22;;;;;;;;;;5030504;28;20485;-56
2022/07/23 04:31:37;;;;;;;9.63;4.38;;;;;;;;;;5031020;28;20040;-56
2022/07/23 04:34:03;;;;;;;10.40;4.72;;;;;;;;;;5031011;28;20444;-55
2022/07/23 04:36:29;;;;;;;6.82;4.20;;;;;;;;;;5031493;28;20473;-56
2022/07/23 04:38:55;;;;;;;5.93;3.63;;;;;;;;;;5030368;28;20056;-56
2022/07/23 04:41:21;;;;;;;6.43;3.88;;;;;;;;;;5030832;28;20041;-56
2022/07/23 04:43:47;;;;;;;7.47;3.72;;;;;;;;;;5031634;28;20111;-55
2022/07/23 04:46:13;;;;;;;6.85;3.67;;;;;;;;;;5029163;28;20096;-56
2022/07/23 04:48:42;;;;;;;6.32;3.40;;;;;;;;;;5031462;28;20025;-56
2022/07/23 04:51:08;;;;;;;9.68;4.40;;;;;;;;;;5030880;28;20036;-56
2022/07/23 04:53:34;;;;;;;10.23;4.00;;;;;;;;;;5030763;28;20025;-57
2022/07/23 04:56:00;;;;;;;9.02;4.28;;;;;;;;;;5031158;28;20036;-57
2022/07/23 04:58:26;;;;;;;18.20;4.68;;;;;;;;;;5030332;28;20053;-56
2022/07/23 05:00:52;;;;;;;9.25;3.88;;;;;;;;;;5030702;28;20058;-56
2022/07/23 05:03:18;;;;;;;7.35;3.67;;;;;;;;;;5029898;28;20469;-56
2022/07/23 05:05:44;;;;;;;9.32;4.03;;;;;;;;;;5031067;28;20026;-55
2022/07/23 05:08:10;;;;;;;6.07;3.40;;;;;;;;;;5037979;28;20033;-56
2022/07/23 05:10:36;;;;;;;8.63;3.92;;;;;;;;;;5029867;28;20095;-55
2022/07/23 05:13:01;;;;;;;9.43;4.13;;;;;;;;;;5031007;28;20119;-56
2022/07/23 05:15:27;;;;;;;8.15;4.07;;;;;;;;;;5030933;28;20033;-57
2022/07/23 05:17:53;;;;;;;5.78;4.00;;;;;;;;;;5029494;28;20052;-55
2022/07/23 05:20:19;;;;;;;15.32;5.28;;;;;;;;;;5030286;28;20029;-56
2022/07/23 05:22:45;;;;;;;6.82;3.65;;;;;;;;;;5028432;28;20057;-58
2022/07/23 05:25:11;;;;;;;10.35;4.32;;;;;;;;;;5029789;28;20036;-56
2022/07/23 05:27:37;;;;;;;8.35;4.05;;;;;;;;;;5031352;28;20113;-56
2022/07/23 05:30:04;;;;;;;9.75;3.97;;;;;;;;;;5034710;28;20045;-57
2022/07/23 05:32:31;;;;;;;7.57;3.42;;;;;;;;;;5029596;28;20090;-56
2022/07/23 05:34:57;;;;;;;10.68;4.35;;;;;;;;;;5026745;28;20036;-54
2022/07/23 05:37:23;;;;;;;9.02;3.47;;;;;;;;;;5029785;28;20129;-56
2022/07/23 05:39:49;;;;;;;6.38;3.95;;;;;;;;;;5028456;28;20110;-56
2022/07/23 05:42:15;;;;;;;7.50;3.97;;;;;;;;;;5028489;28;20041;-55
2022/07/23 05:44:41;;;;;;;6.50;3.40;;;;;;;;;;5034739;28;20100;-56
2022/07/23 05:47:07;;;;;;;9.50;3.85;;;;;;;;;;5034084;28;20477;-56
2022/07/23 05:49:33;;;;;;;5.30;3.13;;;;;;;;;;5023211;28;20454;-56
2022/07/23 05:51:59;;;;;;;7.60;3.45;;;;;;;;;;5024788;28;20108;-55
2022/07/23 05:54:25;;;;;;;8.10;3.72;;;;;;;;;;5034163;28;20037;-56
2022/07/23 05:56:52;;;;;;;7.22;3.58;;;;;;;;;;5032811;28;20052;-56
2022/07/23 05:59:18;;;;;;;7.72;3.45;;;;;;;;;;5032583;28;20025;-57
2022/07/23 06:01:44;;;;;;;8.68;3.67;;;;;;;;;;5032628;28;20444;-57
2022/07/23 06:04:10;;;;;;;9.98;3.85;;;;;;;;;;5027220;28;20030;-58
2022/07/23 06:06:36;;;;;;;8.00;3.70;;;;;;;;;;5028335;28;20029;-56
2022/07/23 06:09:02;;;;;;;8.23;3.50;;;;;;;;;;5027778;28;20037;-56
2022/07/23 06:11:28;;;;;;;8.30;3.70;;;;;;;;;;5026674;28;20049;-56
2022/07/23 06:13:54;;;;;;;10.55;3.72;;;;;;;;;;5031686;28;20573;-56
2022/07/23 06:16:20;;;;;;;7.28;3.10;;;;;;;;;;5033157;28;20026;-56
2022/07/23 06:18:46;;;;;;;8.48;3.45;;;;;;;;;;5031934;28;20022;-56
2022/07/23 06:21:12;;;;;;;7.30;3.40;;;;;;;;;;5033533;28;20038;-56
2022/07/23 06:23:38;;;;;;;4.28;2.75;;;;;;;;;;5031327;28;20112;-57
2022/07/23 06:26:04;;;;;;;7.65;3.75;;;;;;;;;;5031318;28;20017;-55
2022/07/23 06:28:30;;;;;;;6.93;3.67;;;;;;;;;;5026218;28;20548;-56
2022/07/23 06:30:56;;;;;;;9.93;3.83;;;;;;;;;;5031992;28;20052;-56
2022/07/23 06:33:22;;;;;;;7.47;3.30;;;;;;;;;;5031572;28;20112;-57
2022/07/23 06:35:48;;;;;;;6.28;3.33;;;;;;;;;;5030544;28;20029;-56
2022/07/23 06:38:14;;;;;;;7.13;3.88;;;;;;;;;;5031580;28;20386;-55
2022/07/23 06:40:39;;;;;;;8.98;3.30;;;;;;;;;;5029235;28;20521;-57
2022/07/23 06:43:05;;;;;;;6.18;3.17;;;;;;;;;;5030196;28;20032;-56
2022/07/23 06:45:31;;;;;;;9.00;3.92;;;;;;;;;;5030397;28;20472;-55
2022/07/23 06:47:57;;;;;;;6.57;3.10;;;;;;;;;;5030236;28;20370;-56
2022/07/23 06:50:23;;;;;;;6.72;3.22;;;;;;;;;;5027280;28;20021;-56
2022/07/23 06:52:50;;;;;;;6.43;4.20;;;;;;;;;;5031749;28;20488;-56
2022/07/23 06:55:16;;;;;;;9.82;4.45;;;;;;;;;;5025362;28;20034;-58
2022/07/23 06:57:42;;;;;;;8.60;4.20;;;;;;;;;;5025892;28;20045;-56
2022/07/23 07:00:08;;;;;;;6.50;4.18;;;;;;;;;;5032039;28;20040;-55
2022/07/23 07:02:34;;;;;;;7.05;3.30;;;;;;;;;;5030942;28;20478;-56
2022/07/23 07:05:00;;;;;;;12.23;4.15;;;;;;;;;;5025707;28;20032;-56
2022/07/23 07:07:26;;;;;;;9.23;3.83;;;;;;;;;;5028425;28;20124;-55
2022/07/23 07:09:52;;;;;;;8.57;3.63;;;;;;;;;;5027496;28;20128;-55
2022/07/23 07:12:18;;;;;;;6.28;3.50;;;;;;;;;;5025412;28;20029;-57
2022/07/23 07:14:44;;;;;;;4.45;3.00;;;;;;;;;;5031027;28;20032;-57
2022/07/23 07:17:13;;;;;;;9.60;3.95;;;;;;;;;;5026246;28;20030;-58
2022/07/23 07:19:39;;;;;;;7.13;2.97;;;;;;;;;;5029159;28;20029;-58
2022/07/23 07:22:05;;;;;;;5.70;3.30;;;;;;;;;;5022661;28;20040;-56
2022/07/23 07:24:31;;;;;;;11.10;3.40;;;;;;;;;;5024228;28;20029;-57
2022/07/23 07:26:57;;;;;;;10.48;4.25;;;;;;;;;;5030814;28;20056;-55
2022/07/23 07:29:23;;;;;;;6.60;3.58;;;;;;;;;;5021308;28;20026;-55
2022/07/23 07:31:49;;;;;;;7.13;3.70;;;;;;;;;;5031418;28;20025;-54
2022/07/23 07:34:15;;;;;;;8.52;3.88;;;;;;;;;;5031526;28;20036;-56
2022/07/23 07:36:42;;;;;;;10.25;3.75;;;;;;;;;;5026585;28;20040;-56
2022/07/23 07:39:10;;;;;;;4.47;3.38;;;;;;;;;;5024652;28;20075;-56
2022/07/23 07:41:36;;;;;;;5.68;3.65;;;;;;;;;;5030305;28;20108;-57
2022/07/23 07:44:02;;;;;;;9.90;4.38;;;;;;;;;;5024917;28;20099;-55
2022/07/23 07:46:28;;;;;;;8.23;3.85;;;;;;;;;;5029955;28;20026;-55
2022/07/23 07:48:54;;;;;;;10.20;4.00;;;;;;;;;;5029651;28;20026;-56
2022/07/23 07:51:20;;;;;;;6.20;3.28;;;;;;;;;;5027391;28;20064;-55
2022/07/23 07:53:46;;;;;;;7.30;3.85;;;;;;;;;;5031806;28;20443;-56
2022/07/23 07:56:12;;;;;;;7.07;4.00;;;;;;;;;;5027485;28;20037;-56
2022/07/23 07:58:38;;;;;;;8.40;3.92;;;;;;;;;;5028897;28;20083;-55
2022/07/23 08:01:04;;;;;;;8.95;3.35;;;;;;;;;;5026317;28;20512;-56
2022/07/23 08:03:30;;;;;;;9.55;3.83;;;;;;;;;;5023086;28;20029;-57
2022/07/23 08:05:56;;;;;;;7.80;3.67;;;;;;;;;;5031909;28;20025;-56
2022/07/23 08:08:22;;;;;;;8.38;4.35;;;;;;;;;;5020021;28;20029;-55
2022/07/23 08:10:48;;;;;;;8.05;3.85;;;;;;;;;;5026950;28;20028;-55
2022/07/23 08:13:15;;;;;;;10.27;4.03;;;;;;;;;;5030478;28;20029;-56
2022/07/23 08:15:41;;;;;;;9.18;4.10;;;;;;;;;;5028871;28;20037;-56
2022/07/23 08:18:07;;;;;;;10.15;4.32;;;;;;;;;;5028008;28;20476;-56
2022/07/23 08:20:34;;;;;;;8.55;4.07;;;;;;;;;;5030418;28;20374;-56
2022/07/23 08:23:01;;;;;;;11.57;3.40;;;;;;;;;;5030792;28;20029;-56
2022/07/23 08:25:28;;;;;;;7.07;3.28;;;;;;;;;;5022872;28;20030;-56
2022/07/23 08:27:54;;;;;;;9.82;3.97;;;;;;;;;;5027928;28;20029;-55
2022/07/23 08:30:20;;;;;;;7.22;3.38;;;;;;;;;;5018084;28;20384;-54
2022/07/23 08:32:54;;;;;;;5.93;3.22;;;;;;;;;;5018412;28;20529;-57
2022/07/23 08:35:19;;;;;;;;;;;;;;;;;;5029405;28;20033;-55
2022/07/23 08:37:45;;;;;;;9.70;4.10;;;;;;;;;;5020184;28;20327;-56
2022/07/23 08:40:11;;;;;;;6.45;3.20;;;;;;;;;;5029485;28;20025;-56
2022/07/23 08:42:38;;;;;;;5.43;3.17;;;;;;;;;;5028943;28;20021;-54
2022/07/23 08:45:04;;;;;;;5.32;3.03;;;;;;;;;;5031492;28;20100;-55
2022/07/23 08:47:30;;;;;;;5.85;2.80;;;;;;;;;;5024069;28;20048;-56
2022/07/23 08:49:59;;;;;;;9.70;3.25;;;;;;;;;;5019135;28;20579;-57
2022/07/23 08:52:25;;;;;;;11.00;2.50;;;;;;;;;;5030261;28;20029;-56
2022/07/23 08:54:52;;;;;;;5.28;2.85;;;;;;;;;;5030265;28;20434;-56
2022/07/23 08:57:19;;;;;;;7.82;2.50;;;;;;;;;;5029856;28;20578;-56
2022/07/23 08:59:44;;;;;;;7.60;2.78;;;;;;;;;;5030340;28;20036;-57
2022/07/23 09:02:10;;;;;;;6.55;2.33;;;;;;;;;;5026903;28;20489;-58
2022/07/23 09:04:37;;;;;;;5.32;2.08;;;;;;;;;;5029891;28;20017;-56
2022/07/23 09:07:03;;;;;;;3.67;2.30;;;;;;;;;;5029594;28;20022;-56
2022/07/23 09:09:33;;;;;;;5.75;2.30;;;;;;;;;;5031105;28;20022;-56
2022/07/23 09:12:09;;;;;;;5.57;2.70;;;;;;;;;;5029884;28;20056;-56
2022/07/23 09:14:37;;;;;;;5.78;2.42;;;;;;;;;;5030180;28;20515;-56
2022/07/23 09:17:10;;;;;;;6.10;2.78;;;;;;;;;;5029377;28;20032;-57
2022/07/23 09:19:35;;;;;;;5.28;2.88;;;;;;;;;;5029028;28;20029;-57
2022/07/23 09:22:26;;;;;;;12.32;3.20;;;;;;;;;;5030007;28;20021;-57
2022/07/23 09:25:05;;;;;;;4.85;2.58;;;;;;;;;;5030582;28;20018;-56
2022/07/23 09:27:50;;;;;;;7.30;2.85;;;;;;;;;;5030623;28;20028;-56
2022/07/23 09:30:16;;;;;;;7.00;2.97;;;;;;;;;;5026801;28;20025;-57
2022/07/23 09:32:42;;;;;;;8.13;2.28;;;;;;;;;;5027278;28;20049;-56
2022/07/23 09:35:08;;;;;;;6.25;2.50;;;;;;;;;;5024094;28;20075;-57
2022/07/23 09:37:35;;;;;;;5.43;2.38;;;;;;;;;;5025549;28;20112;-56
2022/07/23 09:40:05;;;;;;;6.57;2.30;;;;;;;;;;5029585;28;20014;-57
2022/07/23 09:42:31;;;;;;;10.57;2.85;;;;;;;;;;5030214;28;20481;-56
2022/07/23 09:44:58;;;;;;;7.75;2.40;;;;;;;;;;5030304;28;20453;-57
2022/07/23 09:47:25;;;;;;;9.40;2.25;;;;;;;;;;5026079;28;20021;-56
2022/07/23 09:49:59;;;;;;;8.18;2.15;;;;;;;;;;5027631;28;20473;-58
2022/07/23 09:52:32;;;;;;;4.53;2.25;;;;;;;;;;5026446;28;20083;-57
2022/07/23 09:55:00;;;;;;;9.63;3.20;;;;;;;;;;5026534;28;20036;-57
2022/07/23 09:57:26;;;;;;;5.10;2.22;;;;;;;;;;5025333;28;20577;-56
2022/07/23 09:59:53;;;;;;;3.92;1.77;;;;;;;;;;5030001;28;20033;-56
2022/07/23 10:02:19;;;;;;;7.65;2.30;;;;;;;;;;5028883;28;20030;-56
2022/07/23 10:04:45;;;;;;;6.35;2.85;;;;;;;;;;5030826;28;20679;-55
2022/07/23 10:07:11;;;;;;;6.13;2.55;;;;;;;;;;5028422;28;20033;-56
2022/07/23 10:09:39;;;;;;;7.40;2.65;;;;;;;;;;5028767;28;20120;-57
2022/07/23 10:14:54;;;;;;;5.90;2.58;;;;;;;;;;5025183;28;20119;-56
2022/07/23 10:17:20;;;;;;;2.90;2.00;;;;;;;;;;5033592;28;20108;-57
2022/07/23 10:19:46;;;;;;;8.52;2.65;;;;;;;;;;5028710;28;20038;-55
2022/07/23 10:22:14;;;;;;;5.25;2.58;;;;;;;;;;5025252;28;20036;-56
2022/07/23 10:24:49;;;;;;;7.55;2.75;;;;;;;;;;5028641;28;20626;-56
2022/07/23 10:27:34;;;;;;;7.50;2.25;;;;;;;;;;5026607;28;20022;-56
2022/07/23 10:30:05;;;;;;;3.25;2.05;;;;;;;;;;5020007;28;20029;-57
2022/07/23 10:32:50;;;;;;;7.03;2.00;;;;;;;;;;5031997;28;20021;-54
2022/07/23 10:35:28;;;;;;;7.18;2.53;;;;;;;;;;5028796;28;20504;-57
2022/07/23 10:38:01;;;;;;;4.47;1.92;;;;;;;;;;5028257;28;20380;-55
2022/07/23 10:40:28;;;;;;;5.45;1.88;;;;;;;;;;5027298;28;20038;-56
2022/07/23 10:42:58;;;;;;;5.30;1.70;;;;;;;;;;5026574;28;20065;-56
2022/07/23 10:45:26;;;;;;;5.65;1.95;;;;;;;;;;5035009;28;20105;-56
2022/07/23 10:47:52;;;;;;;5.50;2.03;;;;;;;;;;5025385;28;20026;-57
2022/07/23 10:50:31;;;;;;;5.95;1.75;;;;;;;;;;5024890;28;20029;-57
2022/07/23 10:53:08;;;;;;;6.75;2.00;;;;;;;;;;5023831;28;20026;-57
2022/07/23 10:55:34;;;;;;;4.95;1.85;;;;;;;;;;5026361;28;20159;-57
2022/07/23 10:58:01;;;;;;;3.30;1.88;;;;;;;;;;5025180;28;20046;-56
2022/07/23 11:00:28;;;;;;;3.75;1.80;;;;;;;;;;5022757;28;20478;-57
2022/07/23 11:02:56;;;;;;;6.18;2.00;;;;;;;;;;5033701;28;20032;-55
2022/07/23 11:05:23;;;;;;;9.75;1.90;;;;;;;;;;5033360;28;20021;-57
2022/07/23 11:08:04;;;;;;;3.15;1.77;;;;;;;;;;5032830;28;20105;-56
2022/07/23 11:10:40;;;;;;;5.53;2.30;;;;;;;;;;5032502;28;20034;-56
2022/07/23 11:13:22;;;;;;;7.03;2.47;;;;;;;;;;5033073;28;20029;-57
2022/07/23 11:16:04;;;;;;;7.03;1.98;;;;;;;;;;5031738;28;20029;-57
2022/07/23 11:18:42;;;;;;;4.90;1.90;;;;;;;;;;5033187;28;20033;-56
2022/07/23 11:21:26;;;;;;;4.93;2.10;;;;;;;;;;5032551;28;20033;-57
2022/07/23 11:23:58;;;;;;;5.22;1.80;;;;;;;;;;5032985;28;20023;-56
2022/07/23 11:26:41;;;;;;;4.85;2.03;;;;;;;;;;5031877;28;20021;-56
2022/07/23 11:29:26;;;;;;;9.07;1.85;;;;;;;;;;5032687;28;20559;-57
2022/07/23 11:31:53;;;;;;;4.88;1.95;;;;;;;;;;5030822;28;20440;-57
2022/07/23 11:34:32;;;;;;;3.08;2.00;;;;;;;;;;5033101;28;20700;-56
2022/07/23 11:36:58;;;;;;;5.45;2.05;;;;;;;;;;5032283;28;20022;-56
2022/07/23 11:39:26;;;;;;;6.65;2.13;;;;;;;;;;5025377;28;20041;-55
2022/07/23 11:41:52;;;;;;;4.28;1.65;;;;;;;;;;5035753;28;20030;-56
2022/07/23 11:44:38;;;;;;;4.03;2.10;;;;;;;;;;5032481;28;20507;-57
2022/07/23 11:47:08;;;;;;;5.60;2.30;;;;;;;;;;5032563;28;20071;-57
2022/07/23 11:49:34;;;;;;;3.75;2.00;;;;;;;;;;5029146;28;20469;-56
2022/07/23 11:52:10;;;;;;;4.97;2.28;;;;;;;;;;5031961;28;20044;-57
2022/07/23 11:54:46;;;;;;;4.47;2.25;;;;;;;;;;5032140;28;20385;-57
2022/07/23 11:57:12;;;;;;;7.88;2.30;;;;;;;;;;5032017;28;20067;-54
2022/07/23 11:59:39;;;;;;;4.72;1.98;;;;;;;;;;5032072;28;20025;-57
2022/07/23 12:02:06;;;;;;;4.40;1.92;;;;;;;;;;5031760;28;20053;-57
2022/07/23 12:04:41;;;;;;;4.88;2.00;;;;;;;;;;5032217;28;20120;-57
2022/07/23 12:07:26;;;;;;;5.28;1.77;;;;;;;;;;5030560;28;20068;-60
2022/07/23 12:09:52;;;;;;;5.10;1.80;;;;;;;;;;5031582;28;20025;-56
2022/07/23 12:12:19;;;;;;;3.40;1.70;;;;;;;;;;5025393;28;20401;-57
2022/07/23 12:14:55;;;;;;;4.10;1.77;;;;;;;;;;5028186;28;20047;-57
2022/07/23 12:17:22;;;;;;;3.67;2.20;;;;;;;;;;5030709;28;20076;-56
2022/07/23 12:19:48;;;;;;;11.48;2.17;;;;;;;;;;5029250;28;20055;-56
2022/07/23 12:22:15;;;;;;;3.50;2.05;;;;;;;;;;5031803;28;20025;-55
2022/07/23 12:24:57;;;;;;;3.97;1.77;;;;;;;;;;5030218;28;20059;-57
2022/07/23 12:27:23;;;;;;;3.83;2.03;;;;;;;;;;5031506;28;20033;-57
2022/07/23 12:29:49;;;;;;;6.57;2.20;;;;;;;;;;5031448;28;20381;-57
2022/07/23 12:32:27;;;;;;;4.32;2.45;;;;;;;;;;5031678;28;20034;-57
2022/07/23 12:35:06;;;;;;;3.10;1.85;;;;;;;;;;5031775;28;20029;-55
2022/07/23 12:37:33;;;;;;;4.15;2.17;;;;;;;;;;5030591;28;20040;-57
2022/07/23 12:39:59;;;;;;;4.35;2.42;;;;;;;;;;5025930;28;20062;-56
2022/07/23 12:42:25;;;;;;;5.43;2.20;;;;;;;;;;5031523;28;20030;-57
2022/07/23 12:45:11;;;;;;;5.18;2.50;;;;;;;;;;5031640;28;20036;-57
2022/07/23 12:47:58;;;;;;;5.20;2.00;;;;;;;;;;5027669;28;20022;-57
2022/07/23 12:50:34;;;;;;;4.38;2.17;;;;;;;;;;5026742;28;20064;-57
2022/07/23 12:53:20;;;;;;;4.47;2.05;;;;;;;;;;5031365;28;20049;-57
2022/07/23 12:55:47;;;;;;;5.75;2.25;;;;;;;;;;5029594;28;20026;-57
2022/07/23 12:58:20;;;;;;;4.70;2.38;;;;;;;;;;5030771;28;20037;-56
2022/07/23 13:00:46;;;;;;;;;;;;;;;;;;5031465;28;20389;-57
2022/07/23 13:03:20;;;;;;;3.42;2.20;;;;;;;;;;5031161;28;19952;-56
2022/07/23 13:05:47;;;;;;;5.10;1.95;;;;;;;;;;5031168;28;20102;-57
2022/07/23 13:08:13;;;;;;;2.88;1.48;;;;;;;;;;5031035;28;20025;-57
2022/07/23 13:10:39;;;;;;;4.55;1.77;;;;;;;;;;5030303;28;20029;-58
2022/07/23 13:13:08;;;;;;;2.80;1.63;;;;;;;;;;5039356;28;20104;-57
2022/07/23 13:15:34;;;;;;;3.92;1.60;;;;;;;;;;5031251;28;20029;-57
2022/07/23 13:18:00;;;;;;;4.03;1.92;;;;;;;;;;5030728;28;20026;-57
2022/07/23 13:20:26;;;;;;;4.40;1.83;;;;;;;;;;5030776;28;20056;-57
2022/07/23 13:22:52;;;;;;;3.50;1.80;;;;;;;;;;5030840;28;20029;-57
2022/07/23 13:25:18;;;;;;;2.78;1.42;;;;;;;;;;5030616;28;20022;-57
2022/07/23 13:27:44;;;;;;;3.95;1.50;;;;;;;;;;5028894;28;20025;-57
2022/07/23 13:30:11;;;;;;;4.80;1.65;;;;;;;;;;5030775;28;20057;-57
2022/07/23 13:32:37;;;;;;;3.33;1.52;;;;;;;;;;5030918;28;20031;-57
2022/07/23 13:35:03;;;;;;;3.45;1.40;;;;;;;;;;5031155;28;20031;-57
2022/07/23 13:37:29;;;;;;;2.92;1.40;;;;;;;;;;5029224;28;20063;-57
2022/07/23 13:39:55;;;;;;;2.90;1.08;;;;;;;;;;5029988;28;20482;-55
2022/07/23 13:42:21;;;;;;;4.28;1.00;;;;;;;;;;5030715;28;20025;-55
2022/07/23 13:44:47;;;;;;;2.30;1.02;;;;;;;;;;5030946;28;20025;-54
2022/07/23 13:47:13;;;;;;;1.70;1.05;;;;;;;;;;5030744;28;20029;-55
2022/07/23 13:49:39;;;;;;;2.45;1.23;;;;;;;;;;5021271;28;20033;-55
2022/07/23 13:52:05;;;;;;;1.67;0.63;;;;;;;;;;5034397;28;20028;-55
2022/07/23 13:54:31;;;;;;;5.30;1.10;;;;;;;;;;5033245;28;20400;-55
2022/07/23 13:56:57;;;;;;;2.53;1.00;;;;;;;;;;5034275;28;20049;-55
2022/07/23 13:59:23;;;;;;;2.60;0.88;;;;;;;;;;5034714;28;20041;-55
2022/07/23 14:01:49;;;;;;;1.95;0.90;;;;;;;;;;5034155;28;20029;-56
2022/07/23 14:04:15;;;;;;;2.08;0.57;;;;;;;;;;5034476;28;20030;-56
2022/07/23 14:06:41;;;;;;;4.70;0.93;;;;;;;;;;5034455;28;20525;-56
2022/07/23 14:09:07;;;;;;;1.80;0.80;;;;;;;;;;5032955;28;20041;-55
2022/07/23 14:11:33;;;;;;;3.28;0.77;;;;;;;;;;5035440;28;20037;-55
2022/07/23 14:14:00;;;;;;;3.35;0.70;;;;;;;;;;5029351;28;20155;-55
2022/07/23 14:16:26;;;;;;;4.45;0.75;;;;;;;;;;5034330;28;20056;-56
2022/07/23 14:18:52;;;;;;;2.08;0.80;;;;;;;;;;5034177;28;20029;-55
2022/07/23 14:21:18;;;;;;;5.35;0.93;;;;;;;;;;5033968;28;20025;-56
2022/07/23 14:23:44;;;;;;;3.40;0.70;;;;;;;;;;5033953;28;20099;-56
2022/07/23 14:26:10;;;;;;;3.95;0.60;;;;;;;;;;5032253;28;20044;-55
2022/07/23 14:28:36;;;;;;;1.83;0.70;;;;;;;;;;5031209;28;20097;-55
2022/07/23 14:31:03;;;;;;;3.53;1.05;;;;;;;;;;5024043;28;20095;-55
2022/07/23 14:33:28;;;;;;;5.43;1.00;;;;;;;;;;5033855;28;20479;-55
2022/07/23 14:35:54;;;;;;;3.63;0.90;;;;;;;;;;5033953;28;20167;-55
2022/07/23 14:38:20;;;;;;;2.85;0.68;;;;;;;;;;5033782;28;20029;-54
2022/07/23 14:40:46;;;;;;;2.40;0.60;;;;;;;;;;5031614;28;20036;-56
2022/07/23 14:43:12;;;;;;;1.75;0.50;;;;;;;;;;5033594;28;20025;-55
2022/07/23 14:45:38;;;;;;;1.42;0.50;;;;;;;;;;5033804;28;20461;-55
2022/07/23 14:48:04;;;;;;;1.48;0.40;;;;;;;;;;5033532;28;20026;-55